sensor_id;sensor_type;location;lat;lon;timestamp;P1;durP1;ratioP1;P2;durP2;ratioP2
15655;SDS011;7928;43.614;1.456;2023-11-22T00:01:19;2.17;;;1.70;;
15655;SDS011;7928;43.614;1.456;2023-11-22T00:03:46;3.13;;;1.77;;
15655;SDS011;7928;43.614;1.456;2023-11-22T00:06:13;2.43;;;1.30;;
15655;SDS011;7928;43.614;1.456;2023-11-22T00:08:41;6.87;;;1.60;;
15655;SDS011;7928;43.614;1.456;2023-11-22T00:11:08;3.03;;;1.77;;
15655;SDS011;7928;43.614;1.456;2023-11-22T00:13:36;2.93;;;1.63;;
15655;SDS011;7928;43.614;1.456;2023-11-22T00:16:03;2.37;;;1.57;;
15655;SDS011;7928;43.614;1.456;2023-11-22T00:18:33;3.17;;;1.80;;
15655;SDS011;7928;43.614;1.456;2023-11-22T00:21:02;3.63;;;1.80;;
15655;SDS011;7928;43.614;1.456;2023-11-22T00:23:29;4.17;;;1.20;;
15655;SDS011;7928;43.614;1.456;2023-11-22T00:25:57;3.93;;;1.63;;
15655;SDS011;7928;43.614;1.456;2023-11-22T00:28:24;3.37;;;1.63;;
15655;SDS011;7928;43.614;1.456;2023-11-22T00:30:53;2.60;;;1.27;;
15655;SDS011;7928;43.614;1.456;2023-11-22T00:33:20;3.63;;;1.70;;
15655;SDS011;7928;43.614;1.456;2023-11-22T00:35:46;4.13;;;1.50;;
15655;SDS011;7928;43.614;1.456;2023-11-22T00:38:30;1.80;;;1.20;;
15655;SDS011;7928;43.614;1.456;2023-11-22T00:40:59;3.60;;;1.40;;
15655;SDS011;7928;43.614;1.456;2023-11-22T00:43:27;3.03;;;1.67;;
15655;SDS011;7928;43.614;1.456;2023-11-22T00:45:55;3.53;;;1.40;;
15655;SDS011;7928;43.614;1.456;2023-11-22T00:48:23;2.37;;;1.70;;
15655;SDS011;7928;43.614;1.456;2023-11-22T00:50:50;3.73;;;1.73;;
15655;SDS011;7928;43.614;1.456;2023-11-22T00:53:17;2.03;;;1.70;;
15655;SDS011;7928;43.614;1.456;2023-11-22T00:55:44;2.50;;;1.83;;
15655;SDS011;7928;43.614;1.456;2023-11-22T00:58:11;2.90;;;1.63;;
15655;SDS011;7928;43.614;1.456;2023-11-22T01:00:38;4.33;;;1.60;;
15655;SDS011;7928;43.614;1.456;2023-11-22T01:03:06;2.83;;;1.50;;
15655;SDS011;7928;43.614;1.456;2023-11-22T01:05:36;3.77;;;1.57;;
15655;SDS011;7928;43.614;1.456;2023-11-22T01:08:03;3.20;;;1.80;;
15655;SDS011;7928;43.614;1.456;2023-11-22T01:10:31;3.70;;;1.87;;
15655;SDS011;7928;43.614;1.456;2023-11-22T01:12:58;4.43;;;1.33;;
15655;SDS011;7928;43.614;1.456;2023-11-22T01:15:24;3.57;;;1.43;;
15655;SDS011;7928;43.614;1.456;2023-11-22T01:17:51;2.80;;;1.50;;
15655;SDS011;7928;43.614;1.456;2023-11-22T01:20:20;4.33;;;1.70;;
15655;SDS011;7928;43.614;1.456;2023-11-22T01:22:48;2.87;;;1.60;;
15655;SDS011;7928;43.614;1.456;2023-11-22T01:25:15;5.47;;;1.73;;
15655;SDS011;7928;43.614;1.456;2023-11-22T01:27:42;3.83;;;2.10;;
15655;SDS011;7928;43.614;1.456;2023-11-22T01:30:09;4.70;;;1.70;;
15655;SDS011;7928;43.614;1.456;2023-11-22T01:32:37;4.83;;;2.03;;
15655;SDS011;7928;43.614;1.456;2023-11-22T01:35:04;2.40;;;1.60;;
15655;SDS011;7928;43.614;1.456;2023-11-22T01:37:33;3.57;;;1.77;;
15655;SDS011;7928;43.614;1.456;2023-11-22T01:40:00;3.13;;;1.73;;
15655;SDS011;7928;43.614;1.456;2023-11-22T01:42:28;2.43;;;1.60;;
15655;SDS011;7928;43.614;1.456;2023-11-22T01:44:55;3.13;;;1.83;;
15655;SDS011;7928;43.614;1.456;2023-11-22T01:47:22;5.33;;;1.57;;
15655;SDS011;7928;43.614;1.456;2023-11-22T01:49:49;5.63;;;2.53;;
15655;SDS011;7928;43.614;1.456;2023-11-22T01:52:16;3.33;;;2.00;;
15655;SDS011;7928;43.614;1.456;2023-11-22T01:54:44;2.97;;;1.60;;
15655;SDS011;7928;43.614;1.456;2023-11-22T01:57:11;2.03;;;1.73;;
15655;SDS011;7928;43.614;1.456;2023-11-22T01:59:39;4.03;;;1.97;;
15655;SDS011;7928;43.614;1.456;2023-11-22T02:02:08;2.83;;;1.90;;
15655;SDS011;7928;43.614;1.456;2023-11-22T02:04:35;2.27;;;1.73;;
15655;SDS011;7928;43.614;1.456;2023-11-22T02:07:02;3.77;;;1.80;;
15655;SDS011;7928;43.614;1.456;2023-11-22T02:09:29;9.63;;;1.87;;
15655;SDS011;7928;43.614;1.456;2023-11-22T02:11:57;5.17;;;1.90;;
15655;SDS011;7928;43.614;1.456;2023-11-22T02:14:24;4.87;;;1.63;;
15655;SDS011;7928;43.614;1.456;2023-11-22T02:16:51;2.43;;;1.97;;
15655;SDS011;7928;43.614;1.456;2023-11-22T02:19:18;2.73;;;1.60;;
15655;SDS011;7928;43.614;1.456;2023-11-22T02:21:45;4.23;;;1.80;;
15655;SDS011;7928;43.614;1.456;2023-11-22T02:24:13;3.83;;;1.90;;
15655;SDS011;7928;43.614;1.456;2023-11-22T02:26:43;1.70;;;1.53;;
15655;SDS011;7928;43.614;1.456;2023-11-22T02:29:11;3.40;;;1.60;;
15655;SDS011;7928;43.614;1.456;2023-11-22T02:31:39;3.10;;;1.93;;
15655;SDS011;7928;43.614;1.456;2023-11-22T02:34:09;3.20;;;2.03;;
15655;SDS011;7928;43.614;1.456;2023-11-22T02:36:36;2.53;;;1.60;;
15655;SDS011;7928;43.614;1.456;2023-11-22T02:39:03;5.03;;;1.60;;
15655;SDS011;7928;43.614;1.456;2023-11-22T02:41:32;1.93;;;1.63;;
15655;SDS011;7928;43.614;1.456;2023-11-22T02:44:00;4.20;;;1.80;;
15655;SDS011;7928;43.614;1.456;2023-11-22T02:46:27;3.17;;;2.27;;
15655;SDS011;7928;43.614;1.456;2023-11-22T02:48:54;2.73;;;1.80;;
15655;SDS011;7928;43.614;1.456;2023-11-22T02:51:21;3.93;;;2.00;;
15655;SDS011;7928;43.614;1.456;2023-11-22T02:53:48;3.03;;;1.70;;
15655;SDS011;7928;43.614;1.456;2023-11-22T02:56:15;2.83;;;1.57;;
15655;SDS011;7928;43.614;1.456;2023-11-22T02:58:43;3.87;;;1.80;;
15655;SDS011;7928;43.614;1.456;2023-11-22T03:01:11;3.80;;;2.10;;
15655;SDS011;7928;43.614;1.456;2023-11-22T03:03:38;3.17;;;1.87;;
15655;SDS011;7928;43.614;1.456;2023-11-22T03:06:05;3.37;;;1.77;;
15655;SDS011;7928;43.614;1.456;2023-11-22T03:08:32;5.47;;;1.70;;
15655;SDS011;7928;43.614;1.456;2023-11-22T03:10:59;2.23;;;1.80;;
15655;SDS011;7928;43.614;1.456;2023-11-22T03:13:27;2.20;;;1.50;;
15655;SDS011;7928;43.614;1.456;2023-11-22T03:15:55;2.70;;;1.80;;
15655;SDS011;7928;43.614;1.456;2023-11-22T03:18:22;1.70;;;1.57;;
15655;SDS011;7928;43.614;1.456;2023-11-22T03:20:51;4.23;;;1.70;;
15655;SDS011;7928;43.614;1.456;2023-11-22T03:23:19;2.33;;;1.80;;
15655;SDS011;7928;43.614;1.456;2023-11-22T03:25:46;2.80;;;1.70;;
15655;SDS011;7928;43.614;1.456;2023-11-22T03:28:13;3.70;;;1.70;;
15655;SDS011;7928;43.614;1.456;2023-11-22T03:30:40;2.47;;;1.40;;
15655;SDS011;7928;43.614;1.456;2023-11-22T03:33:08;2.73;;;1.37;;
15655;SDS011;7928;43.614;1.456;2023-11-22T03:35:35;1.73;;;1.53;;
15655;SDS011;7928;43.614;1.456;2023-11-22T03:38:02;1.87;;;1.30;;
15655;SDS011;7928;43.614;1.456;2023-11-22T03:40:29;2.30;;;1.50;;
15655;SDS011;7928;43.614;1.456;2023-11-22T03:42:56;2.40;;;1.40;;
15655;SDS011;7928;43.614;1.456;2023-11-22T03:45:23;1.90;;;1.30;;
15655;SDS011;7928;43.614;1.456;2023-11-22T03:47:50;1.60;;;1.30;;
15655;SDS011;7928;43.614;1.456;2023-11-22T03:50:19;1.70;;;1.30;;
15655;SDS011;7928;43.614;1.456;2023-11-22T03:52:46;3.40;;;1.30;;
15655;SDS011;7928;43.614;1.456;2023-11-22T03:55:13;2.57;;;1.43;;
15655;SDS011;7928;43.614;1.456;2023-11-22T03:57:40;2.67;;;1.40;;
15655;SDS011;7928;43.614;1.456;2023-11-22T04:00:07;3.10;;;1.97;;
15655;SDS011;7928;43.614;1.456;2023-11-22T04:02:37;1.70;;;1.43;;
15655;SDS011;7928;43.614;1.456;2023-11-22T04:05:05;2.83;;;1.40;;
15655;SDS011;7928;43.614;1.456;2023-11-22T04:07:34;1.67;;;1.23;;
15655;SDS011;7928;43.614;1.456;2023-11-22T04:10:03;2.53;;;1.60;;
15655;SDS011;7928;43.614;1.456;2023-11-22T04:12:31;2.77;;;1.60;;
15655;SDS011;7928;43.614;1.456;2023-11-22T04:14:58;2.60;;;1.50;;
15655;SDS011;7928;43.614;1.456;2023-11-22T04:17:25;3.17;;;1.40;;
15655;SDS011;7928;43.614;1.456;2023-11-22T04:19:52;2.10;;;1.30;;
15655;SDS011;7928;43.614;1.456;2023-11-22T04:22:19;3.90;;;1.53;;
15655;SDS011;7928;43.614;1.456;2023-11-22T04:24:47;3.23;;;1.70;;
15655;SDS011;7928;43.614;1.456;2023-11-22T04:27:14;1.83;;;1.33;;
15655;SDS011;7928;43.614;1.456;2023-11-22T04:29:41;2.20;;;1.73;;
15655;SDS011;7928;43.614;1.456;2023-11-22T04:32:08;2.70;;;1.60;;
15655;SDS011;7928;43.614;1.456;2023-11-22T04:34:35;2.00;;;1.80;;
15655;SDS011;7928;43.614;1.456;2023-11-22T04:37:02;1.70;;;1.27;;
15655;SDS011;7928;43.614;1.456;2023-11-22T04:39:30;2.97;;;1.80;;
15655;SDS011;7928;43.614;1.456;2023-11-22T04:41:58;2.17;;;1.70;;
15655;SDS011;7928;43.614;1.456;2023-11-22T04:44:25;2.10;;;1.50;;
15655;SDS011;7928;43.614;1.456;2023-11-22T04:46:52;1.47;;;1.17;;
15655;SDS011;7928;43.614;1.456;2023-11-22T04:49:19;3.03;;;1.90;;
15655;SDS011;7928;43.614;1.456;2023-11-22T04:51:46;3.80;;;1.70;;
15655;SDS011;7928;43.614;1.456;2023-11-22T04:54:14;2.50;;;1.57;;
15655;SDS011;7928;43.614;1.456;2023-11-22T04:56:42;1.83;;;1.53;;
15655;SDS011;7928;43.614;1.456;2023-11-22T04:59:10;3.37;;;1.70;;
15655;SDS011;7928;43.614;1.456;2023-11-22T05:01:38;2.53;;;1.27;;
15655;SDS011;7928;43.614;1.456;2023-11-22T05:04:05;1.87;;;1.60;;
15655;SDS011;7928;43.614;1.456;2023-11-22T05:06:32;2.03;;;1.80;;
15655;SDS011;7928;43.614;1.456;2023-11-22T05:08:58;1.67;;;1.40;;
15655;SDS011;7928;43.614;1.456;2023-11-22T05:11:25;1.97;;;1.60;;
15655;SDS011;7928;43.614;1.456;2023-11-22T05:13:53;2.70;;;2.07;;
15655;SDS011;7928;43.614;1.456;2023-11-22T05:16:21;2.23;;;1.63;;
15655;SDS011;7928;43.614;1.456;2023-11-22T05:18:48;2.73;;;1.40;;
15655;SDS011;7928;43.614;1.456;2023-11-22T05:21:16;2.03;;;1.40;;
15655;SDS011;7928;43.614;1.456;2023-11-22T05:23:43;1.73;;;1.40;;
15655;SDS011;7928;43.614;1.456;2023-11-22T05:26:10;2.13;;;1.60;;
15655;SDS011;7928;43.614;1.456;2023-11-22T05:28:36;1.97;;;1.50;;
15655;SDS011;7928;43.614;1.456;2023-11-22T05:31:03;1.50;;;1.10;;
15655;SDS011;7928;43.614;1.456;2023-11-22T05:33:32;2.87;;;1.30;;
15655;SDS011;7928;43.614;1.456;2023-11-22T05:35:59;3.23;;;1.63;;
15655;SDS011;7928;43.614;1.456;2023-11-22T05:38:26;2.50;;;1.47;;
15655;SDS011;7928;43.614;1.456;2023-11-22T05:40:53;2.87;;;1.20;;
15655;SDS011;7928;43.614;1.456;2023-11-22T05:43:19;3.00;;;1.47;;
15655;SDS011;7928;43.614;1.456;2023-11-22T05:45:50;2.07;;;1.30;;
15655;SDS011;7928;43.614;1.456;2023-11-22T05:48:17;1.83;;;1.40;;
15655;SDS011;7928;43.614;1.456;2023-11-22T05:50:46;3.47;;;1.20;;
15655;SDS011;7928;43.614;1.456;2023-11-22T05:53:14;1.50;;;1.10;;
15655;SDS011;7928;43.614;1.456;2023-11-22T05:55:44;1.73;;;1.40;;
15655;SDS011;7928;43.614;1.456;2023-11-22T05:58:12;1.50;;;1.30;;
15655;SDS011;7928;43.614;1.456;2023-11-22T06:00:41;3.50;;;1.20;;
15655;SDS011;7928;43.614;1.456;2023-11-22T06:03:08;1.83;;;1.30;;
15655;SDS011;7928;43.614;1.456;2023-11-22T06:05:35;3.00;;;1.30;;
15655;SDS011;7928;43.614;1.456;2023-11-22T06:08:04;2.00;;;1.53;;
15655;SDS011;7928;43.614;1.456;2023-11-22T06:10:31;1.83;;;1.20;;
15655;SDS011;7928;43.614;1.456;2023-11-22T06:12:58;2.83;;;1.60;;
15655;SDS011;7928;43.614;1.456;2023-11-22T06:15:25;1.70;;;1.20;;
15655;SDS011;7928;43.614;1.456;2023-11-22T06:17:52;1.50;;;1.30;;
15655;SDS011;7928;43.614;1.456;2023-11-22T06:20:19;3.20;;;1.37;;
15655;SDS011;7928;43.614;1.456;2023-11-22T06:22:49;1.93;;;1.30;;
15655;SDS011;7928;43.614;1.456;2023-11-22T06:25:17;1.13;;;1.00;;
15655;SDS011;7928;43.614;1.456;2023-11-22T06:27:44;2.43;;;1.20;;
15655;SDS011;7928;43.614;1.456;2023-11-22T06:30:11;4.07;;;1.40;;
15655;SDS011;7928;43.614;1.456;2023-11-22T06:32:39;1.20;;;1.00;;
15655;SDS011;7928;43.614;1.456;2023-11-22T06:35:08;1.60;;;1.17;;
15655;SDS011;7928;43.614;1.456;2023-11-22T06:37:36;2.63;;;1.90;;
15655;SDS011;7928;43.614;1.456;2023-11-22T06:40:04;5.57;;;1.70;;
15655;SDS011;7928;43.614;1.456;2023-11-22T06:42:33;2.97;;;1.60;;
15655;SDS011;7928;43.614;1.456;2023-11-22T06:44:59;2.23;;;1.50;;
15655;SDS011;7928;43.614;1.456;2023-11-22T06:47:27;4.90;;;1.70;;
15655;SDS011;7928;43.614;1.456;2023-11-22T06:49:54;5.33;;;1.40;;
15655;SDS011;7928;43.614;1.456;2023-11-22T06:52:21;6.27;;;1.80;;
15655;SDS011;7928;43.614;1.456;2023-11-22T06:54:48;3.23;;;1.70;;
15655;SDS011;7928;43.614;1.456;2023-11-22T06:57:15;2.13;;;1.40;;
15655;SDS011;7928;43.614;1.456;2023-11-22T06:59:43;3.83;;;2.20;;
15655;SDS011;7928;43.614;1.456;2023-11-22T07:02:10;2.17;;;1.83;;
15655;SDS011;7928;43.614;1.456;2023-11-22T07:04:39;2.73;;;1.87;;
15655;SDS011;7928;43.614;1.456;2023-11-22T07:07:06;4.83;;;1.60;;
15655;SDS011;7928;43.614;1.456;2023-11-22T07:09:36;4.43;;;1.57;;
15655;SDS011;7928;43.614;1.456;2023-11-22T07:12:04;4.10;;;1.60;;
15655;SDS011;7928;43.614;1.456;2023-11-22T07:14:32;4.10;;;2.17;;
15655;SDS011;7928;43.614;1.456;2023-11-22T07:17:01;2.77;;;1.97;;
15655;SDS011;7928;43.614;1.456;2023-11-22T07:19:28;2.73;;;1.97;;
15655;SDS011;7928;43.614;1.456;2023-11-22T07:21:55;3.20;;;1.77;;
15655;SDS011;7928;43.614;1.456;2023-11-22T07:24:23;3.80;;;1.80;;
15655;SDS011;7928;43.614;1.456;2023-11-22T07:26:50;3.70;;;2.10;;
15655;SDS011;7928;43.614;1.456;2023-11-22T07:29:16;4.73;;;2.03;;
15655;SDS011;7928;43.614;1.456;2023-11-22T07:31:43;5.33;;;3.00;;
15655;SDS011;7928;43.614;1.456;2023-11-22T07:34:12;7.00;;;2.77;;
15655;SDS011;7928;43.614;1.456;2023-11-22T07:36:39;5.90;;;2.57;;
15655;SDS011;7928;43.614;1.456;2023-11-22T07:39:06;5.00;;;2.27;;
15655;SDS011;7928;43.614;1.456;2023-11-22T07:41:33;2.97;;;2.03;;
15655;SDS011;7928;43.614;1.456;2023-11-22T07:44:00;2.50;;;1.60;;
15655;SDS011;7928;43.614;1.456;2023-11-22T07:46:27;2.93;;;2.10;;
15655;SDS011;7928;43.614;1.456;2023-11-22T07:48:54;4.03;;;2.20;;
15655;SDS011;7928;43.614;1.456;2023-11-22T07:51:22;5.07;;;2.10;;
15655;SDS011;7928;43.614;1.456;2023-11-22T07:53:50;6.33;;;2.67;;
15655;SDS011;7928;43.614;1.456;2023-11-22T07:56:17;3.30;;;2.23;;
15655;SDS011;7928;43.614;1.456;2023-11-22T07:58:43;4.20;;;2.70;;
15655;SDS011;7928;43.614;1.456;2023-11-22T08:01:10;3.07;;;1.93;;
15655;SDS011;7928;43.614;1.456;2023-11-22T08:03:39;5.77;;;2.13;;
15655;SDS011;7928;43.614;1.456;2023-11-22T08:06:10;3.47;;;2.53;;
15655;SDS011;7928;43.614;1.456;2023-11-22T08:08:39;3.03;;;2.10;;
15655;SDS011;7928;43.614;1.456;2023-11-22T08:11:06;3.10;;;2.13;;
15655;SDS011;7928;43.614;1.456;2023-11-22T08:13:39;3.73;;;2.30;;
15655;SDS011;7928;43.614;1.456;2023-11-22T08:16:08;7.17;;;2.30;;
15655;SDS011;7928;43.614;1.456;2023-11-22T08:18:35;4.10;;;2.90;;
15655;SDS011;7928;43.614;1.456;2023-11-22T08:21:02;6.50;;;2.43;;
15655;SDS011;7928;43.614;1.456;2023-11-22T08:23:29;4.57;;;2.63;;
15655;SDS011;7928;43.614;1.456;2023-11-22T08:25:58;4.70;;;2.13;;
15655;SDS011;7928;43.614;1.456;2023-11-22T08:28:26;3.60;;;2.07;;
15655;SDS011;7928;43.614;1.456;2023-11-22T08:30:54;3.97;;;2.33;;
15655;SDS011;7928;43.614;1.456;2023-11-22T08:33:21;9.43;;;2.40;;
15655;SDS011;7928;43.614;1.456;2023-11-22T08:35:48;3.23;;;2.03;;
15655;SDS011;7928;43.614;1.456;2023-11-22T08:38:17;5.37;;;2.50;;
15655;SDS011;7928;43.614;1.456;2023-11-22T08:40:44;3.77;;;2.20;;
15655;SDS011;7928;43.614;1.456;2023-11-22T08:43:12;5.90;;;2.30;;
15655;SDS011;7928;43.614;1.456;2023-11-22T08:45:39;2.43;;;2.17;;
15655;SDS011;7928;43.614;1.456;2023-11-22T08:48:09;3.97;;;2.40;;
15655;SDS011;7928;43.614;1.456;2023-11-22T08:50:36;5.17;;;3.03;;
15655;SDS011;7928;43.614;1.456;2023-11-22T08:53:03;3.63;;;2.60;;
15655;SDS011;7928;43.614;1.456;2023-11-22T08:55:30;4.63;;;2.93;;
15655;SDS011;7928;43.614;1.456;2023-11-22T08:57:59;4.53;;;2.30;;
15655;SDS011;7928;43.614;1.456;2023-11-22T09:00:27;3.33;;;2.30;;
15655;SDS011;7928;43.614;1.456;2023-11-22T09:02:57;4.90;;;2.83;;
15655;SDS011;7928;43.614;1.456;2023-11-22T09:05:24;6.33;;;2.80;;
15655;SDS011;7928;43.614;1.456;2023-11-22T09:07:52;7.60;;;2.80;;
15655;SDS011;7928;43.614;1.456;2023-11-22T09:10:20;7.03;;;3.03;;
15655;SDS011;7928;43.614;1.456;2023-11-22T09:12:47;5.43;;;3.50;;
15655;SDS011;7928;43.614;1.456;2023-11-22T09:15:14;4.73;;;3.13;;
15655;SDS011;7928;43.614;1.456;2023-11-22T09:17:45;6.43;;;3.67;;
15655;SDS011;7928;43.614;1.456;2023-11-22T09:20:12;4.80;;;2.63;;
15655;SDS011;7928;43.614;1.456;2023-11-22T09:22:43;6.70;;;2.83;;
15655;SDS011;7928;43.614;1.456;2023-11-22T09:25:12;3.33;;;2.73;;
15655;SDS011;7928;43.614;1.456;2023-11-22T09:27:41;3.97;;;3.00;;
15655;SDS011;7928;43.614;1.456;2023-11-22T09:30:12;3.80;;;2.70;;
15655;SDS011;7928;43.614;1.456;2023-11-22T09:32:45;3.07;;;2.37;;
15655;SDS011;7928;43.614;1.456;2023-11-22T09:35:12;7.00;;;2.70;;
15655;SDS011;7928;43.614;1.456;2023-11-22T09:37:40;5.60;;;2.40;;
15655;SDS011;7928;43.614;1.456;2023-11-22T09:40:10;3.67;;;2.87;;
15655;SDS011;7928;43.614;1.456;2023-11-22T09:42:39;4.97;;;3.20;;
15655;SDS011;7928;43.614;1.456;2023-11-22T09:45:06;5.73;;;2.90;;
15655;SDS011;7928;43.614;1.456;2023-11-22T09:47:34;4.57;;;2.53;;
15655;SDS011;7928;43.614;1.456;2023-11-22T09:50:04;3.63;;;2.33;;
15655;SDS011;7928;43.614;1.456;2023-11-22T09:52:35;3.63;;;2.40;;
15655;SDS011;7928;43.614;1.456;2023-11-22T09:55:07;4.77;;;2.73;;
15655;SDS011;7928;43.614;1.456;2023-11-22T09:57:35;3.67;;;2.47;;
15655;SDS011;7928;43.614;1.456;2023-11-22T10:00:05;9.23;;;2.17;;
15655;SDS011;7928;43.614;1.456;2023-11-22T10:02:39;2.50;;;1.60;;
15655;SDS011;7928;43.614;1.456;2023-11-22T10:05:07;3.83;;;2.20;;
15655;SDS011;7928;43.614;1.456;2023-11-22T10:07:34;2.67;;;1.73;;
15655;SDS011;7928;43.614;1.456;2023-11-22T10:10:02;4.33;;;2.20;;
15655;SDS011;7928;43.614;1.456;2023-11-22T10:12:31;5.27;;;2.23;;
15655;SDS011;7928;43.614;1.456;2023-11-22T10:15:11;4.70;;;1.83;;
15655;SDS011;7928;43.614;1.456;2023-11-22T10:17:39;7.37;;;2.07;;
15655;SDS011;7928;43.614;1.456;2023-11-22T10:20:08;5.37;;;1.50;;
15655;SDS011;7928;43.614;1.456;2023-11-22T10:22:45;2.70;;;1.47;;
15655;SDS011;7928;43.614;1.456;2023-11-22T10:25:13;6.50;;;1.53;;
15655;SDS011;7928;43.614;1.456;2023-11-22T10:27:43;2.43;;;1.43;;
15655;SDS011;7928;43.614;1.456;2023-11-22T10:30:11;4.20;;;1.77;;
15655;SDS011;7928;43.614;1.456;2023-11-22T10:32:40;4.90;;;2.70;;
15655;SDS011;7928;43.614;1.456;2023-11-22T10:35:09;4.17;;;2.27;;
15655;SDS011;7928;43.614;1.456;2023-11-22T10:37:39;3.30;;;1.63;;
15655;SDS011;7928;43.614;1.456;2023-11-22T10:40:10;1.63;;;1.47;;
15655;SDS011;7928;43.614;1.456;2023-11-22T10:42:40;6.77;;;1.93;;
15655;SDS011;7928;43.614;1.456;2023-11-22T10:45:09;4.53;;;1.87;;
15655;SDS011;7928;43.614;1.456;2023-11-22T10:47:36;2.93;;;1.43;;
15655;SDS011;7928;43.614;1.456;2023-11-22T10:50:04;2.53;;;1.20;;
15655;SDS011;7928;43.614;1.456;2023-11-22T10:52:35;2.40;;;2.20;;
15655;SDS011;7928;43.614;1.456;2023-11-22T10:55:03;4.23;;;1.67;;
15655;SDS011;7928;43.614;1.456;2023-11-22T10:57:32;4.03;;;1.63;;
15655;SDS011;7928;43.614;1.456;2023-11-22T11:00:06;3.63;;;1.80;;
15655;SDS011;7928;43.614;1.456;2023-11-22T11:02:38;3.07;;;1.40;;
15655;SDS011;7928;43.614;1.456;2023-11-22T11:05:11;2.63;;;1.70;;
15655;SDS011;7928;43.614;1.456;2023-11-22T11:07:47;4.37;;;1.60;;
15655;SDS011;7928;43.614;1.456;2023-11-22T11:10:19;2.73;;;1.33;;
15655;SDS011;7928;43.614;1.456;2023-11-22T11:12:48;2.50;;;1.23;;
15655;SDS011;7928;43.614;1.456;2023-11-22T11:15:15;5.73;;;1.40;;
15655;SDS011;7928;43.614;1.456;2023-11-22T11:17:44;1.90;;;1.13;;
15655;SDS011;7928;43.614;1.456;2023-11-22T11:20:15;6.10;;;1.73;;
15655;SDS011;7928;43.614;1.456;2023-11-22T11:22:43;2.93;;;1.60;;
15655;SDS011;7928;43.614;1.456;2023-11-22T11:25:13;5.17;;;1.83;;
15655;SDS011;7928;43.614;1.456;2023-11-22T11:27:43;2.00;;;1.30;;
15655;SDS011;7928;43.614;1.456;2023-11-22T11:33:10;3.50;;;1.30;;
15655;SDS011;7928;43.614;1.456;2023-11-22T11:35:42;2.37;;;1.50;;
15655;SDS011;7928;43.614;1.456;2023-11-22T11:38:13;1.50;;;1.10;;
15655;SDS011;7928;43.614;1.456;2023-11-22T11:40:41;3.43;;;1.60;;
15655;SDS011;7928;43.614;1.456;2023-11-22T11:43:09;4.00;;;1.53;;
15655;SDS011;7928;43.614;1.456;2023-11-22T11:45:37;3.70;;;1.40;;
15655;SDS011;7928;43.614;1.456;2023-11-22T11:48:05;4.27;;;1.60;;
15655;SDS011;7928;43.614;1.456;2023-11-22T11:50:33;4.03;;;1.40;;
15655;SDS011;7928;43.614;1.456;2023-11-22T11:53:00;3.60;;;1.63;;
15655;SDS011;7928;43.614;1.456;2023-11-22T11:55:28;2.27;;;1.63;;
15655;SDS011;7928;43.614;1.456;2023-11-22T11:57:55;2.33;;;1.57;;
15655;SDS011;7928;43.614;1.456;2023-11-22T12:00:22;2.30;;;1.27;;
15655;SDS011;7928;43.614;1.456;2023-11-22T12:02:50;2.47;;;1.77;;
15655;SDS011;7928;43.614;1.456;2023-11-22T12:05:18;2.20;;;1.23;;
15655;SDS011;7928;43.614;1.456;2023-11-22T12:07:46;4.00;;;1.90;;
15655;SDS011;7928;43.614;1.456;2023-11-22T12:10:13;3.37;;;1.33;;
15655;SDS011;7928;43.614;1.456;2023-11-22T12:12:44;4.73;;;1.47;;
15655;SDS011;7928;43.614;1.456;2023-11-22T12:15:12;3.23;;;1.30;;
15655;SDS011;7928;43.614;1.456;2023-11-22T12:17:40;2.50;;;1.80;;
15655;SDS011;7928;43.614;1.456;2023-11-22T12:20:10;2.07;;;1.57;;
15655;SDS011;7928;43.614;1.456;2023-11-22T12:22:39;3.23;;;2.07;;
15655;SDS011;7928;43.614;1.456;2023-11-22T12:25:07;2.20;;;1.70;;
15655;SDS011;7928;43.614;1.456;2023-11-22T12:27:38;2.27;;;1.63;;
15655;SDS011;7928;43.614;1.456;2023-11-22T12:30:08;4.53;;;1.80;;
15655;SDS011;7928;43.614;1.456;2023-11-22T12:32:38;1.50;;;1.17;;
15655;SDS011;7928;43.614;1.456;2023-11-22T12:35:06;2.80;;;1.90;;
15655;SDS011;7928;43.614;1.456;2023-11-22T12:37:37;3.67;;;1.60;;
15655;SDS011;7928;43.614;1.456;2023-11-22T12:40:09;4.27;;;1.57;;
15655;SDS011;7928;43.614;1.456;2023-11-22T12:42:45;2.33;;;1.50;;
15655;SDS011;7928;43.614;1.456;2023-11-22T12:45:25;2.30;;;1.50;;
15655;SDS011;7928;43.614;1.456;2023-11-22T12:47:54;2.97;;;1.37;;
15655;SDS011;7928;43.614;1.456;2023-11-22T12:50:31;1.33;;;1.17;;
15655;SDS011;7928;43.614;1.456;2023-11-22T12:52:59;3.00;;;1.37;;
15655;SDS011;7928;43.614;1.456;2023-11-22T12:55:33;1.57;;;1.23;;
15655;SDS011;7928;43.614;1.456;2023-11-22T12:58:00;2.03;;;1.50;;
15655;SDS011;7928;43.614;1.456;2023-11-22T13:00:29;3.30;;;1.70;;
15655;SDS011;7928;43.614;1.456;2023-11-22T13:02:57;3.93;;;1.30;;
15655;SDS011;7928;43.614;1.456;2023-11-22T13:05:24;2.70;;;1.50;;
15655;SDS011;7928;43.614;1.456;2023-11-22T13:07:51;13.70;;;2.27;;
15655;SDS011;7928;43.614;1.456;2023-11-22T13:10:18;3.10;;;1.60;;
15655;SDS011;7928;43.614;1.456;2023-11-22T13:12:50;1.47;;;1.30;;
15655;SDS011;7928;43.614;1.456;2023-11-22T13:15:18;1.73;;;1.00;;
15655;SDS011;7928;43.614;1.456;2023-11-22T13:17:49;2.40;;;1.30;;
15655;SDS011;7928;43.614;1.456;2023-11-22T13:20:20;2.17;;;0.80;;
15655;SDS011;7928;43.614;1.456;2023-11-22T13:22:51;1.53;;;0.87;;
15655;SDS011;7928;43.614;1.456;2023-11-22T13:25:18;3.30;;;1.30;;
15655;SDS011;7928;43.614;1.456;2023-11-22T13:27:46;2.33;;;0.80;;
15655;SDS011;7928;43.614;1.456;2023-11-22T13:30:13;3.33;;;1.00;;
15655;SDS011;7928;43.614;1.456;2023-11-22T13:32:40;3.43;;;1.47;;
15655;SDS011;7928;43.614;1.456;2023-11-22T13:35:09;3.83;;;0.97;;
15655;SDS011;7928;43.614;1.456;2023-11-22T13:37:40;3.03;;;1.20;;
15655;SDS011;7928;43.614;1.456;2023-11-22T13:40:09;1.77;;;1.10;;
15655;SDS011;7928;43.614;1.456;2023-11-22T13:42:40;2.90;;;1.27;;
15655;SDS011;7928;43.614;1.456;2023-11-22T13:45:10;1.03;;;1.00;;
15655;SDS011;7928;43.614;1.456;2023-11-22T13:47:41;1.33;;;0.90;;
15655;SDS011;7928;43.614;1.456;2023-11-22T13:50:11;1.93;;;1.20;;
15655;SDS011;7928;43.614;1.456;2023-11-22T13:52:40;2.27;;;1.10;;
15655;SDS011;7928;43.614;1.456;2023-11-22T13:55:07;3.40;;;1.20;;
15655;SDS011;7928;43.614;1.456;2023-11-22T13:57:36;2.50;;;0.80;;
15655;SDS011;7928;43.614;1.456;2023-11-22T14:00:03;1.50;;;0.90;;
15655;SDS011;7928;43.614;1.456;2023-11-22T14:02:34;1.43;;;0.97;;
15655;SDS011;7928;43.614;1.456;2023-11-22T14:05:01;3.70;;;1.27;;
15655;SDS011;7928;43.614;1.456;2023-11-22T14:07:34;2.33;;;1.10;;
15655;SDS011;7928;43.614;1.456;2023-11-22T14:10:01;1.70;;;1.00;;
15655;SDS011;7928;43.614;1.456;2023-11-22T14:12:29;1.67;;;1.00;;
15655;SDS011;7928;43.614;1.456;2023-11-22T14:14:56;4.97;;;1.20;;
15655;SDS011;7928;43.614;1.456;2023-11-22T14:17:24;3.80;;;3.23;;
15655;SDS011;7928;43.614;1.456;2023-11-22T14:19:51;2.83;;;1.30;;
15655;SDS011;7928;43.614;1.456;2023-11-22T14:22:19;2.50;;;0.90;;
15655;SDS011;7928;43.614;1.456;2023-11-22T14:24:48;2.07;;;1.10;;
15655;SDS011;7928;43.614;1.456;2023-11-22T14:27:15;2.40;;;1.17;;
15655;SDS011;7928;43.614;1.456;2023-11-22T14:29:43;2.60;;;1.20;;
15655;SDS011;7928;43.614;1.456;2023-11-22T14:32:13;1.67;;;1.00;;
15655;SDS011;7928;43.614;1.456;2023-11-22T14:34:40;2.20;;;1.20;;
15655;SDS011;7928;43.614;1.456;2023-11-22T14:37:08;4.07;;;1.33;;
15655;SDS011;7928;43.614;1.456;2023-11-22T14:39:35;2.03;;;1.60;;
15655;SDS011;7928;43.614;1.456;2023-11-22T14:42:03;2.10;;;1.27;;
15655;SDS011;7928;43.614;1.456;2023-11-22T14:44:32;1.83;;;1.60;;
15655;SDS011;7928;43.614;1.456;2023-11-22T14:46:59;2.20;;;1.50;;
15655;SDS011;7928;43.614;1.456;2023-11-22T14:49:31;1.77;;;1.10;;
15655;SDS011;7928;43.614;1.456;2023-11-22T14:51:58;4.10;;;1.50;;
15655;SDS011;7928;43.614;1.456;2023-11-22T14:54:25;2.37;;;1.50;;
15655;SDS011;7928;43.614;1.456;2023-11-22T14:56:52;4.50;;;2.27;;
15655;SDS011;7928;43.614;1.456;2023-11-22T14:59:22;1.60;;;1.40;;
15655;SDS011;7928;43.614;1.456;2023-11-22T15:01:50;2.43;;;2.03;;
15655;SDS011;7928;43.614;1.456;2023-11-22T15:04:16;3.57;;;3.10;;
15655;SDS011;7928;43.614;1.456;2023-11-22T15:06:44;3.07;;;1.87;;
15655;SDS011;7928;43.614;1.456;2023-11-22T15:09:11;2.30;;;1.50;;